createdAt,value
2019-05-07T00:00:55.380Z,-0.80
2019-05-07T00:03:24.271Z,-0.80
2019-05-07T00:05:53.909Z,-0.80
2019-05-07T00:08:24.005Z,-0.80
2019-05-07T00:10:53.036Z,-0.80
2019-05-07T00:13:22.719Z,-0.80
2019-05-07T00:15:52.814Z,-0.90
2019-05-07T00:18:23.010Z,-0.90
2019-05-07T00:20:52.940Z,-0.90
2019-05-07T00:23:23.210Z,-0.80
2019-05-07T00:25:52.937Z,-0.80
2019-05-07T00:28:23.008Z,-0.90
2019-05-07T00:30:52.264Z,-0.90
2019-05-07T00:33:22.696Z,-1.00
2019-05-07T00:36:05.801Z,-1.10
2019-05-07T00:38:36.140Z,-1.10
2019-05-07T00:41:09.525Z,-1.10
2019-05-07T00:43:39.340Z,-1.20
2019-05-07T00:46:09.848Z,-1.20
2019-05-07T00:48:38.618Z,-1.20
2019-05-07T00:51:24.116Z,-1.30
2019-05-07T00:53:53.412Z,-1.30
2019-05-07T00:56:22.463Z,-1.30
2019-05-07T00:58:52.894Z,-1.30
2019-05-07T01:01:22.811Z,-1.30
2019-05-07T01:03:53.359Z,-1.30
2019-05-07T01:06:26.356Z,-1.30
2019-05-07T01:08:54.676Z,-1.30
2019-05-07T01:11:24.093Z,-1.30
2019-05-07T01:13:52.948Z,-1.30
2019-05-07T01:16:22.350Z,-1.30
2019-05-07T01:18:53.636Z,-1.40
2019-05-07T01:21:22.689Z,-1.50
2019-05-07T01:23:52.322Z,-1.50
2019-05-07T01:26:22.108Z,-1.50
2019-05-07T01:29:03.346Z,-1.50
2019-05-07T01:31:35.578Z,-1.50
2019-05-07T01:34:24.347Z,-1.50
2019-05-07T01:36:53.239Z,-1.40
2019-05-07T01:39:23.212Z,-1.30
2019-05-07T01:41:52.480Z,-1.30
2019-05-07T01:44:22.144Z,-1.20
2019-05-07T01:46:52.914Z,-1.20
2019-05-07T01:49:24.085Z,-1.10
2019-05-07T01:51:53.067Z,-1.20
2019-05-07T01:54:23.813Z,-1.20
2019-05-07T01:56:52.953Z,-1.10
2019-05-07T01:59:22.486Z,-1.20
2019-05-07T02:01:53.643Z,-1.20
2019-05-07T02:04:27.230Z,-1.20
2019-05-07T02:07:06.771Z,-1.10
2019-05-07T02:09:37.266Z,-1.00
2019-05-07T02:12:07.830Z,-1.00
2019-05-07T02:14:36.599Z,-1.00
2019-05-07T02:17:05.391Z,-1.00
2019-05-07T02:19:34.227Z,-0.90
2019-05-07T02:22:03.031Z,-0.80
2019-05-07T02:24:33.888Z,-0.70
2019-05-07T02:27:03.115Z,-0.60
2019-05-07T02:29:32.519Z,-0.70
2019-05-07T02:32:04.623Z,-0.70
2019-05-07T02:34:34.355Z,-0.70
2019-05-07T02:37:04.256Z,-0.60
2019-05-07T02:39:44.447Z,-0.60
2019-05-07T02:42:13.692Z,-0.60
2019-05-07T02:44:59.089Z,-0.70
2019-05-07T02:47:32.830Z,-0.70
2019-05-07T02:50:03.018Z,-0.80
2019-05-07T02:52:36.294Z,-0.80
2019-05-07T02:55:07.655Z,-0.90
2019-05-07T02:57:36.624Z,-1.00
2019-05-07T03:00:07.473Z,-1.00
2019-05-07T03:02:36.224Z,-0.90
2019-05-07T03:05:05.600Z,-0.80
2019-05-07T03:07:34.422Z,-0.80
2019-05-07T03:10:03.821Z,-0.80
2019-05-07T03:12:33.467Z,-0.70
2019-05-07T03:15:04.433Z,-0.70
2019-05-07T03:17:33.568Z,-0.50
2019-05-07T03:20:04.444Z,-0.50
2019-05-07T03:22:33.978Z,-0.40
2019-05-07T03:25:07.620Z,-0.50
2019-05-07T03:27:36.654Z,-0.50
2019-05-07T03:30:16.165Z,-0.50
2019-05-07T03:32:47.602Z,-0.50
2019-05-07T03:35:37.042Z,-0.60
2019-05-07T03:38:05.902Z,-0.60
2019-05-07T03:40:35.723Z,-0.60
2019-05-07T03:43:06.032Z,-0.60
2019-05-07T03:45:39.452Z,-0.60
2019-05-07T03:48:16.190Z,-0.70
2019-05-07T03:50:45.116Z,-0.70
2019-05-07T03:53:14.594Z,-0.70
2019-05-07T03:55:45.024Z,-0.70
2019-05-07T03:58:14.713Z,-0.70
2019-05-07T04:00:44.754Z,-0.70
2019-05-07T04:03:16.759Z,-0.60
2019-05-07T04:05:44.066Z,-0.60
2019-05-07T04:08:13.330Z,-0.50
2019-05-07T04:10:44.331Z,-0.40
2019-05-07T04:13:13.662Z,-0.30
2019-05-07T04:15:43.929Z,-0.20
2019-05-07T04:18:13.621Z,-0.10
2019-05-07T04:20:43.477Z,-0.10
2019-05-07T04:23:13.795Z,0.00
2019-05-07T04:25:47.312Z,0.10
2019-05-07T04:28:33.726Z,0.10
2019-05-07T04:31:03.568Z,0.20
2019-05-07T04:33:34.070Z,0.20
2019-05-07T04:36:14.284Z,0.30
2019-05-07T04:38:44.162Z,0.40
2019-05-07T04:41:13.932Z,0.40
2019-05-07T04:43:43.626Z,0.50
2019-05-07T04:46:14.421Z,0.70
2019-05-07T04:48:43.898Z,0.80
2019-05-07T04:51:14.709Z,0.90
2019-05-07T04:53:43.497Z,1.00
2019-05-07T04:56:14.071Z,1.00
2019-05-07T04:58:43.501Z,1.20
2019-05-07T05:01:14.133Z,1.40
2019-05-07T05:03:43.639Z,1.60
2019-05-07T05:06:13.610Z,1.80
2019-05-07T05:08:43.640Z,2.00
2019-05-07T05:11:12.950Z,2.20
2019-05-07T05:13:44.404Z,2.30
2019-05-07T05:16:26.048Z,2.50
2019-05-07T05:18:56.612Z,2.80
2019-05-07T05:21:32.077Z,3.10
2019-05-07T05:24:01.962Z,3.80
2019-05-07T05:26:32.585Z,4.40
2019-05-07T05:29:02.399Z,4.90
2019-05-07T05:31:33.029Z,5.50
2019-05-07T05:34:02.271Z,6.20
2019-05-07T05:36:33.031Z,6.40
2019-05-07T05:39:02.493Z,6.40
2019-05-07T05:41:34.091Z,6.60
2019-05-07T05:44:04.606Z,6.40
2019-05-07T05:46:34.259Z,6.30
2019-05-07T05:49:03.143Z,6.20
2019-05-07T05:51:36.573Z,6.50
2019-05-07T05:54:09.630Z,6.50
2019-05-07T05:56:46.138Z,6.50
2019-05-07T05:59:25.478Z,6.50
2019-05-07T06:01:53.797Z,6.60
2019-05-07T06:04:33.500Z,6.80
2019-05-07T06:07:11.476Z,7.00
2019-05-07T06:09:44.500Z,7.10
2019-05-07T06:12:32.965Z,7.30
2019-05-07T06:15:09.485Z,7.30
2019-05-07T06:17:49.051Z,7.70
2019-05-07T06:20:25.714Z,8.00
2019-05-07T06:23:12.896Z,8.60
2019-05-07T06:25:43.685Z,8.90
2019-05-07T06:28:12.754Z,9.30
2019-05-07T06:30:41.991Z,9.50
2019-05-07T06:33:12.453Z,10.10
2019-05-07T06:35:42.917Z,10.20
2019-05-07T06:38:12.571Z,10.00
2019-05-07T06:40:59.578Z,9.70
2019-05-07T06:43:39.623Z,9.50
2019-05-07T06:46:08.883Z,9.70
2019-05-07T06:48:42.844Z,10.10
2019-05-07T06:51:08.045Z,10.40
2019-05-07T06:53:36.755Z,10.70
2019-05-07T06:56:05.464Z,11.10
2019-05-07T06:58:35.909Z,11.40
2019-05-07T07:01:06.443Z,11.70
2019-05-07T07:03:45.833Z,12.00
2019-05-07T07:06:16.303Z,12.70
2019-05-07T07:08:49.618Z,12.70
2019-05-07T07:11:26.329Z,12.80
2019-05-07T07:13:55.075Z,12.60
2019-05-07T07:16:23.872Z,13.70
2019-05-07T07:18:55.693Z,14.90
2019-05-07T07:21:23.174Z,15.70
2019-05-07T07:23:52.464Z,15.90
2019-05-07T07:26:22.048Z,15.90
2019-05-07T07:28:52.580Z,15.80
2019-05-07T07:31:26.374Z,16.40
2019-05-07T07:33:57.300Z,16.60
2019-05-07T07:36:27.912Z,15.20
2019-05-07T07:38:56.823Z,13.50
2019-05-07T07:41:33.053Z,12.70
2019-05-07T07:44:02.200Z,12.40
2019-05-07T07:46:33.045Z,13.60
2019-05-07T07:49:10.652Z,12.90
2019-05-07T07:51:40.497Z,14.00
2019-05-07T07:54:02.987Z,12.60
2019-05-07T07:56:50.141Z,11.90
2019-05-07T07:59:28.390Z,11.90
2019-05-07T08:02:15.135Z,13.90
2019-05-07T08:04:43.916Z,16.00
2019-05-07T08:07:12.693Z,17.20
2019-05-07T08:09:42.768Z,16.70
2019-05-07T08:12:12.800Z,17.20
2019-05-07T08:14:42.703Z,17.30
2019-05-07T08:17:13.035Z,15.50
2019-05-07T08:19:42.858Z,16.50
2019-05-07T08:22:12.283Z,17.00
2019-05-07T08:24:42.645Z,15.10
2019-05-07T08:27:12.857Z,15.80
2019-05-07T08:29:43.143Z,15.90
2019-05-07T08:32:28.701Z,15.80
2019-05-07T08:34:59.165Z,16.00
2019-05-07T08:37:28.068Z,15.80
2019-05-07T08:39:56.965Z,16.50
2019-05-07T08:42:25.713Z,16.70
2019-05-07T08:45:08.152Z,15.70
2019-05-07T08:47:47.969Z,15.30
2019-05-07T08:50:17.024Z,15.20
2019-05-07T08:52:45.883Z,15.20
2019-05-07T08:55:15.093Z,14.70
2019-05-07T08:57:45.883Z,14.80
2019-05-07T09:00:16.552Z,14.60
2019-05-07T09:02:45.404Z,13.30
2019-05-07T09:05:14.418Z,13.00
2019-05-07T09:07:43.157Z,13.50
2019-05-07T09:10:12.696Z,15.80
2019-05-07T09:12:42.858Z,16.00
2019-05-07T09:15:12.594Z,14.30
2019-05-07T09:17:42.344Z,12.30
2019-05-07T09:20:12.496Z,12.10
2019-05-07T09:22:42.701Z,12.80
2019-05-07T09:25:13.156Z,13.00
2019-05-07T09:27:46.689Z,13.30
2019-05-07T09:30:22.032Z,14.10
2019-05-07T09:32:58.448Z,13.20
2019-05-07T09:35:43.755Z,14.10
2019-05-07T09:38:12.609Z,15.70
2019-05-07T09:40:42.184Z,13.30
2019-05-07T09:43:11.721Z,13.40
2019-05-07T09:45:42.122Z,12.70
2019-05-07T09:48:11.928Z,13.90
2019-05-07T09:50:42.748Z,15.50
2019-05-07T09:53:12.710Z,14.00
2019-05-07T09:55:42.661Z,12.90
2019-05-07T09:58:12.585Z,14.00
2019-05-07T10:00:42.424Z,14.60
2019-05-07T10:03:12.642Z,14.20
2019-05-07T10:05:42.712Z,13.00
2019-05-07T10:08:12.877Z,13.20
2019-05-07T10:10:42.340Z,13.00
2019-05-07T10:13:16.455Z,13.10
2019-05-07T10:15:45.339Z,12.10
2019-05-07T10:18:15.692Z,11.60
2019-05-07T10:20:46.012Z,12.20
2019-05-07T10:23:22.795Z,11.90
2019-05-07T10:25:52.240Z,11.60
2019-05-07T10:28:22.708Z,12.20
2019-05-07T10:30:52.272Z,12.80
2019-05-07T10:33:22.847Z,12.80
2019-05-07T10:35:52.887Z,13.00
2019-05-07T10:38:22.333Z,12.30
2019-05-07T10:40:51.169Z,12.20
2019-05-07T10:43:22.044Z,12.80
2019-05-07T10:45:58.362Z,12.60
2019-05-07T10:48:32.020Z,12.80
2019-05-07T10:51:02.725Z,11.80
2019-05-07T10:53:32.141Z,11.70
2019-05-07T10:56:02.679Z,12.00
2019-05-07T10:58:32.168Z,12.90
2019-05-07T11:01:02.952Z,12.80
2019-05-07T11:03:32.527Z,14.10
2019-05-07T11:06:01.500Z,14.20
2019-05-07T11:08:32.708Z,15.00
2019-05-07T11:11:02.701Z,13.70
2019-05-07T11:13:31.161Z,14.40
2019-05-07T11:16:02.429Z,15.00
2019-05-07T11:18:33.016Z,13.50
2019-05-07T11:21:03.622Z,14.10
2019-05-07T11:23:32.916Z,13.70
2019-05-07T11:26:02.569Z,13.90
2019-05-07T11:28:32.299Z,12.70
2019-05-07T11:31:02.110Z,12.40
2019-05-07T11:33:32.525Z,12.00
2019-05-07T11:36:02.142Z,12.10
2019-05-07T11:38:33.186Z,12.30
2019-05-07T11:41:02.349Z,12.90
2019-05-07T11:43:45.222Z,13.80
2019-05-07T11:46:15.603Z,14.20
2019-05-07T11:48:46.127Z,14.10
2019-05-07T11:51:33.424Z,14.70
2019-05-07T11:54:09.820Z,14.80
2019-05-07T11:56:39.162Z,15.60
2019-05-07T11:59:08.244Z,16.50
2019-05-07T12:01:46.779Z,16.70
2019-05-07T12:04:09.550Z,15.40
2019-05-07T12:06:38.411Z,16.10
2019-05-07T12:09:08.395Z,15.70
2019-05-07T12:11:37.196Z,14.00
2019-05-07T12:14:06.280Z,13.20
2019-05-07T12:16:36.533Z,12.90
2019-05-07T12:19:05.295Z,13.60
2019-05-07T12:21:34.126Z,13.00
2019-05-07T12:24:03.387Z,13.30
2019-05-07T12:26:33.770Z,13.80
2019-05-07T12:29:02.521Z,14.90
2019-05-07T12:31:49.050Z,14.90
2019-05-07T12:34:19.538Z,14.70
2019-05-07T12:36:48.249Z,15.40
2019-05-07T12:39:16.932Z,14.60
2019-05-07T12:41:47.303Z,14.50
2019-05-07T12:44:16.238Z,13.80
2019-05-07T12:46:45.160Z,13.10
2019-05-07T12:49:13.886Z,13.40
2019-05-07T12:52:02.781Z,14.00
2019-05-07T12:54:42.181Z,14.00
2019-05-07T12:57:11.802Z,14.00
2019-05-07T12:59:43.716Z,14.70
2019-05-07T13:02:37.941Z,15.00
2019-05-07T13:04:59.699Z,14.90
2019-05-07T13:07:32.414Z,14.10
2019-05-07T13:10:02.580Z,14.80
2019-05-07T13:12:32.190Z,15.20
2019-05-07T13:15:02.969Z,15.30
2019-05-07T13:17:33.576Z,15.60
2019-05-07T13:20:02.206Z,15.10
2019-05-07T13:22:32.600Z,15.00
2019-05-07T13:25:02.136Z,14.30
2019-05-07T13:27:32.020Z,14.20
2019-05-07T13:30:02.642Z,15.20
2019-05-07T13:32:33.312Z,14.60
2019-05-07T13:35:03.411Z,14.40
2019-05-07T13:37:33.964Z,14.90
2019-05-07T13:40:17.188Z,15.00
2019-05-07T13:42:52.279Z,15.40
2019-05-07T13:45:31.827Z,16.00
2019-05-07T13:48:06.166Z,15.80
2019-05-07T13:50:35.184Z,14.40
2019-05-07T13:53:03.875Z,14.90
2019-05-07T13:55:32.850Z,15.60
2019-05-07T13:58:01.768Z,15.60
2019-05-07T14:00:35.155Z,14.70
2019-05-07T14:03:04.216Z,14.00
2019-05-07T14:05:33.385Z,14.50
2019-05-07T14:08:04.580Z,15.90
2019-05-07T14:10:33.909Z,15.60
2019-05-07T14:13:11.184Z,15.40
2019-05-07T14:15:35.022Z,16.60
2019-05-07T14:18:03.892Z,17.00
2019-05-07T14:20:33.140Z,17.90
2019-05-07T14:23:02.152Z,17.90
2019-05-07T14:25:32.558Z,17.80
2019-05-07T14:28:02.308Z,18.00
2019-05-07T14:30:32.789Z,16.20
2019-05-07T14:33:06.286Z,15.10
2019-05-07T14:35:36.819Z,14.50
2019-05-07T14:38:07.582Z,14.80
2019-05-07T14:40:36.241Z,16.10
2019-05-07T14:43:12.711Z,16.20
2019-05-07T14:45:42.174Z,17.00
2019-05-07T14:48:12.293Z,17.50
2019-05-07T14:50:41.986Z,18.50
2019-05-07T14:53:12.029Z,16.80
2019-05-07T14:55:41.805Z,15.70
2019-05-07T14:58:12.448Z,15.20
2019-05-07T15:00:42.629Z,14.90
2019-05-07T15:03:12.409Z,14.90
2019-05-07T15:05:42.227Z,15.40
2019-05-07T15:08:14.361Z,15.50
2019-05-07T15:10:42.377Z,15.70
2019-05-07T15:13:12.729Z,15.90
2019-05-07T15:15:41.922Z,15.80
2019-05-07T15:18:15.759Z,15.40
2019-05-07T15:20:44.244Z,15.10
2019-05-07T15:23:15.702Z,15.00
2019-05-07T15:25:44.652Z,14.70
2019-05-07T15:28:14.124Z,14.50
2019-05-07T15:30:45.133Z,14.60
2019-05-07T15:33:14.030Z,14.60
2019-05-07T15:35:42.919Z,14.60
2019-05-07T15:38:12.013Z,14.70
2019-05-07T15:40:42.320Z,14.80
2019-05-07T15:43:12.914Z,14.80
2019-05-07T15:45:41.761Z,14.90
2019-05-07T15:48:12.546Z,14.30
2019-05-07T15:50:42.920Z,13.70
2019-05-07T15:53:13.625Z,14.00
2019-05-07T15:55:43.537Z,14.00
2019-05-07T15:58:12.751Z,14.00
2019-05-07T16:00:42.599Z,14.30
2019-05-07T16:03:29.281Z,13.70
2019-05-07T16:05:58.703Z,13.80
2019-05-07T16:08:29.449Z,14.30
2019-05-07T16:10:58.436Z,14.40
2019-05-07T16:13:42.026Z,14.30
2019-05-07T16:16:11.446Z,14.40
2019-05-07T16:18:58.594Z,14.40
2019-05-07T16:21:27.448Z,14.00
2019-05-07T16:23:56.293Z,13.40
2019-05-07T16:26:25.476Z,13.60
2019-05-07T16:28:54.474Z,14.00
2019-05-07T16:31:24.571Z,14.50
2019-05-07T16:33:53.971Z,15.10
2019-05-07T16:36:23.195Z,15.80
2019-05-07T16:38:52.721Z,16.30
2019-05-07T16:41:22.443Z,16.80
2019-05-07T16:43:52.411Z,17.40
2019-05-07T16:46:22.403Z,16.90
2019-05-07T16:48:51.431Z,16.00
2019-05-07T16:51:22.342Z,16.00
2019-05-07T16:53:52.429Z,15.30
2019-05-07T16:56:22.696Z,15.10
2019-05-07T16:58:53.430Z,15.10
2019-05-07T17:01:24.695Z,15.10
2019-05-07T17:03:57.970Z,15.10
2019-05-07T17:06:26.736Z,15.00
2019-05-07T17:09:09.423Z,14.70
2019-05-07T17:11:43.449Z,14.10
2019-05-07T17:14:12.990Z,14.10
2019-05-07T17:16:41.998Z,13.70
2019-05-07T17:19:13.353Z,13.40
2019-05-07T17:21:43.062Z,13.30
2019-05-07T17:24:12.487Z,13.30
2019-05-07T17:26:42.299Z,13.20
2019-05-07T17:29:12.059Z,13.20
2019-05-07T17:31:42.455Z,13.00
2019-05-07T17:34:11.916Z,12.80
2019-05-07T17:36:42.178Z,12.80
2019-05-07T17:39:12.195Z,12.60
2019-05-07T17:41:42.883Z,12.50
2019-05-07T17:44:12.019Z,12.40
2019-05-07T17:46:42.673Z,12.20
2019-05-07T17:49:12.037Z,12.10
2019-05-07T17:51:42.598Z,12.00
2019-05-07T17:54:13.130Z,11.80
2019-05-07T17:56:43.544Z,11.70
2019-05-07T17:59:13.870Z,11.70
2019-05-07T18:01:44.610Z,11.60
2019-05-07T18:04:13.908Z,11.60
2019-05-07T18:06:43.413Z,11.60
2019-05-07T18:09:12.612Z,11.40
2019-05-07T18:11:42.862Z,11.20
2019-05-07T18:14:12.044Z,11.10
2019-05-07T18:16:48.402Z,10.90
2019-05-07T18:19:17.499Z,10.60
2019-05-07T18:21:46.598Z,10.40
2019-05-07T18:24:16.843Z,10.10
2019-05-07T18:26:46.120Z,9.80
2019-05-07T18:29:15.114Z,9.50
2019-05-07T18:31:45.849Z,9.20
2019-05-07T18:34:14.945Z,8.90
2019-05-07T18:36:44.249Z,8.70
2019-05-07T18:39:13.348Z,8.40
2019-05-07T18:41:42.647Z,8.20
2019-05-07T18:44:13.510Z,8.00
2019-05-07T18:46:42.165Z,7.90
2019-05-07T18:49:12.843Z,7.80
2019-05-07T18:51:42.648Z,7.70
2019-05-07T18:54:20.436Z,7.50
2019-05-07T18:56:42.551Z,7.40
2019-05-07T18:59:12.255Z,7.40
2019-05-07T19:01:42.900Z,7.30
2019-05-07T19:04:12.927Z,7.30
2019-05-07T19:06:43.127Z,7.20
2019-05-07T19:09:12.336Z,7.00
2019-05-07T19:11:42.712Z,6.90
2019-05-07T19:14:13.420Z,6.80
2019-05-07T19:16:43.317Z,6.70
2019-05-07T19:19:12.624Z,6.60
2019-05-07T19:21:42.303Z,6.60
2019-05-07T19:24:11.844Z,6.60
2019-05-07T19:26:42.090Z,6.60
2019-05-07T19:29:12.435Z,6.60
2019-05-07T19:31:43.725Z,6.50
2019-05-07T19:34:12.934Z,6.70
2019-05-07T19:36:45.004Z,6.70
2019-05-07T19:39:14.404Z,6.60
2019-05-07T19:41:43.501Z,6.50
2019-05-07T19:44:12.914Z,6.40
2019-05-07T19:46:42.615Z,6.20
2019-05-07T19:49:11.919Z,6.00
2019-05-07T19:51:42.695Z,5.90
2019-05-07T19:54:11.951Z,5.80
2019-05-07T19:56:42.604Z,5.70
2019-05-07T19:59:12.487Z,5.70
2019-05-07T20:01:43.439Z,5.60
2019-05-07T20:04:13.296Z,5.70
2019-05-07T20:06:42.977Z,5.70
2019-05-07T20:09:15.613Z,5.60
2019-05-07T20:11:46.483Z,5.60
2019-05-07T20:14:15.479Z,5.50
2019-05-07T20:16:44.677Z,5.40
2019-05-07T20:19:13.979Z,5.30
2019-05-07T20:21:43.076Z,5.30
2019-05-07T20:24:12.691Z,5.40
2019-05-07T20:26:43.072Z,5.30
2019-05-07T20:29:12.621Z,5.40
2019-05-07T20:31:42.354Z,5.20
2019-05-07T20:34:13.041Z,5.20
2019-05-07T20:36:42.830Z,5.10
2019-05-07T20:39:12.886Z,5.00
2019-05-07T20:41:43.531Z,4.90
2019-05-07T20:44:12.858Z,4.90
2019-05-07T20:46:42.303Z,4.80
2019-05-07T20:49:13.082Z,4.80
2019-05-07T20:51:42.526Z,4.60
2019-05-07T20:54:25.502Z,4.60
2019-05-07T20:57:04.632Z,4.70
2019-05-07T20:59:33.564Z,4.70
2019-05-07T21:02:02.623Z,4.80
2019-05-07T21:04:33.018Z,4.80
2019-05-07T21:07:02.287Z,4.70
2019-05-07T21:09:32.889Z,4.60
2019-05-07T21:12:01.744Z,4.50
2019-05-07T21:14:32.461Z,4.50
2019-05-07T21:17:01.299Z,4.30
2019-05-07T21:19:30.149Z,4.30
2019-05-07T21:21:59.052Z,4.30
2019-05-07T21:24:27.913Z,4.30
2019-05-07T21:26:56.869Z,4.30
2019-05-07T21:29:25.755Z,4.40
2019-05-07T21:31:54.631Z,4.30
2019-05-07T21:34:23.537Z,4.40
2019-05-07T21:36:52.638Z,4.40
2019-05-07T21:39:22.353Z,4.30
2019-05-07T21:41:51.975Z,4.30
2019-05-07T21:44:22.733Z,4.30
2019-05-07T21:46:51.951Z,4.30
2019-05-07T21:49:22.265Z,4.20
2019-05-07T21:51:52.285Z,4.20
2019-05-07T21:54:38.534Z,4.10
2019-05-07T21:57:27.006Z,4.00
2019-05-07T22:00:09.811Z,3.80
2019-05-07T22:02:38.665Z,3.80
2019-05-07T22:05:08.177Z,4.10
2019-05-07T22:07:37.093Z,4.10
2019-05-07T22:10:07.702Z,4.20
2019-05-07T22:12:36.620Z,4.20
2019-05-07T22:15:05.579Z,4.10
2019-05-07T22:17:34.693Z,4.10
2019-05-07T22:20:04.114Z,4.10
2019-05-07T22:22:33.007Z,4.10
2019-05-07T22:25:04.943Z,4.00
2019-05-07T22:27:32.757Z,4.00
2019-05-07T22:30:02.330Z,3.90
2019-05-07T22:32:35.704Z,3.90
2019-05-07T22:35:14.059Z,3.80
2019-05-07T22:37:43.154Z,3.70
2019-05-07T22:40:12.525Z,3.60
2019-05-07T22:42:41.554Z,3.50
2019-05-07T22:45:12.190Z,3.40
2019-05-07T22:47:41.995Z,3.30
2019-05-07T22:50:12.043Z,3.20
2019-05-07T22:52:41.076Z,3.10
2019-05-07T22:55:13.905Z,3.00
2019-05-07T22:57:42.346Z,2.90
2019-05-07T23:00:13.214Z,2.90
2019-05-07T23:02:42.834Z,2.80
2019-05-07T23:05:12.309Z,2.80
2019-05-07T23:07:41.776Z,2.80
2019-05-07T23:10:12.723Z,2.80
2019-05-07T23:12:41.461Z,2.70
2019-05-07T23:15:11.948Z,2.60
2019-05-07T23:17:41.176Z,2.60
2019-05-07T23:20:10.026Z,2.50
2019-05-07T23:22:38.908Z,2.50
2019-05-07T23:25:08.072Z,2.50
2019-05-07T23:27:36.939Z,2.50
2019-05-07T23:30:06.749Z,2.50
2019-05-07T23:32:35.653Z,2.40
2019-05-07T23:35:05.471Z,2.40
2019-05-07T23:37:34.579Z,2.40
2019-05-07T23:40:05.730Z,2.40
2019-05-07T23:42:36.461Z,2.30
2019-05-07T23:45:07.051Z,2.20
2019-05-07T23:47:35.882Z,2.20
2019-05-07T23:50:06.439Z,2.10
2019-05-07T23:52:35.212Z,2.00
2019-05-07T23:55:04.296Z,1.90
2019-05-07T23:57:33.156Z,1.90
